Time;durP1;ratioP1;P1;durP2;ratioP2;P2;SDS_P1;SDS_P2;PMS_P1;PMS_P2;Temp;Humidity;BMP_temperature;BMP_pressure;BME280_temperature;BME280_humidity;BME280_pressure;Samples;Min_cycle;Max_cycle;Signal;HPM_P1;HPM_P2
2023/03/07 00:01:27;;;;;;;14.13;6.60;;;;;;;3.79;100.00;99910.50;4937256;29;20603;-92
2023/03/07 00:03:52;;;;;;;11.25;5.30;;;;;;;3.62;100.00;99883.38;4935957;29;20108;-92
2023/03/07 00:06:20;;;;;;;11.27;4.88;;;;;;;3.63;100.00;99908.13;4939739;29;20081;-92
2023/03/07 00:08:54;;;;;;;9.70;4.75;;;;;;;3.34;100.00;99875.13;4939701;29;20035;-94
2023/03/07 00:11:22;;;;;;;8.32;4.28;;;;;;;3.44;100.00;99904.91;4935214;29;20055;-92
2023/03/07 00:13:55;;;;;;;8.18;4.28;;;;;;;3.27;100.00;99896.53;4924105;29;20045;-92
2023/03/07 00:16:31;;;;;;;7.03;4.03;;;;;;;3.21;100.00;99892.31;4935137;29;20031;-92
2023/03/07 00:18:59;;;;;;;7.85;3.75;;;;;;;3.14;100.00;99873.59;4940284;29;20102;-93
2023/03/07 00:21:30;;;;;;;6.65;3.13;;;;;;;3.23;100.00;99892.28;4936286;29;20027;-92
2023/03/07 00:23:55;;;;;;;6.45;3.15;;;;;;;3.11;100.00;99891.56;4938646;29;20048;-93
2023/03/07 00:26:22;;;;;;;5.93;3.13;;;;;;;3.07;100.00;99879.63;4935068;29;20111;-92
2023/03/07 00:28:50;;;;;;;5.20;2.78;;;;;;;3.01;100.00;99877.13;4931808;29;20058;-92
2023/03/07 00:31:19;;;;;;;6.75;3.03;;;;;;;3.07;100.00;99884.75;4940646;29;20033;-92
2023/03/07 00:33:44;;;;;;;6.85;2.65;;;;;;;3.08;100.00;99888.16;4935344;29;20541;-92
2023/03/07 00:36:20;;;;;;;6.78;2.47;;;;;;;2.95;100.00;99866.94;4922752;29;20032;-93
2023/03/07 00:38:51;;;;;;;7.18;2.58;;;;;;;2.92;100.00;99871.25;4934073;29;20059;-93
2023/03/07 00:41:26;;;;;;;5.93;3.00;;;;;;;2.90;100.00;99881.50;4929706;29;20048;-92
2023/03/07 00:43:55;;;;;;;4.25;2.08;;;;;;;2.82;100.00;99869.63;4940331;29;20038;-92
2023/03/07 00:46:24;;;;;;;4.32;2.10;;;;;;;2.81;100.00;99866.19;4939837;29;20039;-93
2023/03/07 00:48:58;;;;;;;4.15;2.10;;;;;;;2.78;100.00;99859.41;4934256;29;20036;-93
2023/03/07 00:51:23;;;;;;;6.05;2.03;;;;;;;2.79;100.00;99870.50;4936690;29;20043;-93
2023/03/07 00:53:52;;;;;;;2.88;1.70;;;;;;;2.68;100.00;99862.91;4931094;29;20532;-92
2023/03/07 00:56:22;;;;;;;3.75;1.95;;;;;;;2.62;100.00;99859.53;4933246;29;20039;-93
2023/03/07 00:58:48;;;;;;;4.05;1.85;;;;;;;2.56;100.00;99859.59;4936185;29;20058;-93
2023/03/07 01:01:17;;;;;;;3.70;1.63;;;;;;;2.51;100.00;99859.63;4936022;29;20055;-93
2023/03/07 01:03:54;;;;;;;;;;;;;;;;;;;;;
2023/03/07 01:06:33;;;;;;;3.17;1.70;;;;;;;2.42;100.00;99852.00;4933439;29;20407;-92
2023/03/07 01:09:07;;;;;;;3.40;1.73;;;;;;;2.55;100.00;99874.09;4932139;29;20031;-93
2023/03/07 01:11:43;;;;;;;3.08;1.42;;;;;;;2.64;100.00;99878.28;4935613;29;20206;-93
2023/03/07 01:14:09;;;;;;;3.03;1.55;;;;;;;2.63;100.00;99869.78;4937922;29;20046;-93
2023/03/07 01:16:38;;;;;;;3.65;1.60;;;;;;;2.55;100.00;99853.63;4939514;29;20039;-94
2023/03/07 01:19:13;;;;;;;3.05;1.60;;;;;;;2.65;100.00;99845.03;4934460;29;20038;-93
2023/03/07 01:21:42;;;;;;;4.03;1.70;;;;;;;2.79;100.00;99875.63;4933428;29;20035;-93
2023/03/07 01:24:14;;;;;;;4.30;1.85;;;;;;;2.60;100.00;99843.34;4934788;29;20027;-92
2023/03/07 01:26:39;;;;;;;4.80;2.00;;;;;;;2.58;100.00;99830.59;4932525;29;20034;-93
2023/03/07 01:29:10;;;;;;;4.50;2.00;;;;;;;2.61;100.00;99840.78;4933724;29;20028;-93
2023/03/07 01:31:35;;;;;;;4.82;1.88;;;;;;;2.65;100.00;99851.84;4926939;29;20042;-93
2023/03/07 01:34:11;;;;;;;5.28;2.40;;;;;;;2.63;100.00;99840.78;4932743;29;20130;-93
2023/03/07 01:36:36;;;;;;;5.35;2.80;;;;;;;2.63;100.00;99836.50;4935170;29;20111;-93
2023/03/07 01:39:31;;;;;;;5.43;2.80;;;;;;;2.63;100.00;99827.97;4928633;29;20035;-93
2023/03/07 01:41:57;;;;;;;6.00;2.92;;;;;;;2.81;100.00;99852.56;4929480;29;20035;-92
2023/03/07 01:44:24;;;;;;;5.90;2.90;;;;;;;2.86;100.00;99851.69;4941597;29;20042;-92
2023/03/07 01:46:54;;;;;;;7.32;3.28;;;;;;;2.76;100.00;99819.34;4934437;29;21451;-92
2023/03/07 01:49:23;;;;;;;5.47;2.63;;;;;;;2.94;100.00;99841.34;4935285;29;20147;-94
2023/03/07 01:52:17;;;;;;;6.53;3.38;;;;;;;2.85;100.00;99826.94;4937180;29;20106;-93
2023/03/07 01:54:51;;;;;;;7.10;3.67;;;;;;;2.96;100.00;99839.63;4919867;29;20094;-93
2023/03/07 01:57:26;;;;;;;8.07;3.70;;;;;;;2.87;100.00;99812.41;4935355;29;20752;-94
2023/03/07 01:59:56;;;;;;;7.68;4.20;;;;;;;2.85;100.00;99800.50;4934905;29;20103;-94
2023/03/07 02:02:25;;;;;;;7.78;3.83;;;;;;;2.93;100.00;99809.81;4934012;29;20040;-94
2023/03/07 02:05:15;;;;;;;8.95;4.13;;;;;;;3.12;100.00;99824.13;4940217;29;20031;-94
2023/03/07 02:07:48;;;;;;;9.95;4.57;;;;;;;3.02;100.00;99799.47;4932691;29;20485;-94
2023/03/07 02:10:20;;;;;;;10.32;4.90;;;;;;;3.20;100.00;99830.88;4934429;29;20126;-94
2023/03/07 02:12:50;;;;;;;10.85;4.97;;;;;;;3.10;100.00;99804.53;4939268;28;21437;-93
2023/03/07 02:15:16;;;;;;;12.68;5.80;;;;;;;3.10;100.00;99797.69;4936288;29;20165;-93
2023/03/07 02:17:43;;;;;;;11.05;5.50;;;;;;;3.26;100.00;99816.31;4936291;29;20110;-93
2023/03/07 02:20:35;;;;;;;13.00;5.95;;;;;;;3.20;100.00;99792.47;4937291;29;20039;-93
2023/03/07 02:23:12;;;;;;;13.52;6.28;;;;;;;3.21;100.00;99783.94;4933652;29;20115;-93
2023/03/07 02:26:21;;;;;;;13.27;5.78;;;;;;;3.29;100.00;99795.78;4919407;29;20039;-95
2023/03/07 02:28:49;;;;;;;11.85;5.95;;;;;;;3.28;100.00;99786.38;4895323;29;20102;-94
2023/03/07 02:31:18;;;;;;;13.32;6.30;;;;;;;3.23;100.00;99775.34;4940391;29;20645;-93
2023/03/07 02:33:43;;;;;;;14.18;6.05;;;;;;;3.25;100.00;99777.91;4936261;29;20130;-92
2023/03/07 02:36:13;;;;;;;13.98;5.95;;;;;;;3.36;100.00;99781.19;4930728;29;20135;-93
2023/03/07 02:38:53;;;;;;;13.00;6.32;;;;;;;3.21;100.00;99763.47;4937566;29;20107;-93
2023/03/07 02:41:27;;;;;;;14.32;6.00;;;;;;;3.22;100.00;99763.41;4930872;29;20023;-92
2023/03/07 02:43:52;;;;;;;12.95;6.28;;;;;;;3.27;100.00;99773.63;4925548;29;20634;-93
2023/03/07 02:46:19;;;;;;;11.40;5.18;;;;;;;3.27;100.00;99776.19;4931544;29;20847;-93
2023/03/07 02:48:45;;;;;;;13.05;6.15;;;;;;;3.36;100.00;99789.72;4928721;29;20031;-93
2023/03/07 02:51:13;;;;;;;14.57;6.22;;;;;;;3.19;100.00;99763.47;4930919;29;20027;-92
2023/03/07 02:53:39;;;;;;;16.88;6.15;;;;;;;3.28;100.00;99777.84;4931951;29;20036;-93
2023/03/07 02:56:05;;;;;;;11.50;5.47;;;;;;;3.26;100.00;99770.22;4935227;29;20034;-93
2023/03/07 02:58:57;;;;;;;12.27;5.55;;;;;;;3.26;100.00;99765.09;4933169;29;20035;-93
2023/03/07 03:01:22;;;;;;;12.70;5.60;;;;;;;3.21;100.00;99763.47;4932970;29;20039;-93
2023/03/07 03:03:50;;;;;;;12.05;5.20;;;;;;;3.20;100.00;99760.06;4937939;29;20078;-93
2023/03/07 03:06:16;;;;;;;12.93;5.68;;;;;;;3.23;100.00;99762.56;4936694;29;20038;-94
2023/03/07 03:08:46;;;;;;;11.65;5.25;;;;;;;3.26;100.00;99764.25;4937348;29;20031;-93
2023/03/07 03:11:14;;;;;;;13.60;5.45;;;;;;;3.26;100.00;99765.09;4937054;29;21941;-93
2023/03/07 03:13:40;;;;;;;12.40;4.85;;;;;;;3.27;100.00;99763.38;4934286;29;20027;-93
2023/03/07 03:16:06;;;;;;;10.25;4.72;;;;;;;3.20;100.00;99760.06;4937842;29;20045;-93
2023/03/07 03:18:31;;;;;;;10.88;4.68;;;;;;;3.14;100.00;99755.81;4928584;29;20110;-93
2023/03/07 03:21:14;;;;;;;12.70;5.07;;;;;;;3.20;100.00;99765.16;4937780;29;20035;-92
2023/03/07 03:23:43;;;;;;;10.25;4.82;;;;;;;3.13;100.00;99749.03;4931374;29;20118;-93
2023/03/07 03:26:11;;;;;;;11.77;4.30;;;;;;;3.20;100.00;99757.50;4933707;28;20117;-94
2023/03/07 03:28:42;;;;;;;9.68;4.55;;;;;;;3.27;100.00;99777.03;4936508;29;20062;-93
2023/03/07 03:31:14;;;;;;;11.38;5.00;;;;;;;3.15;100.00;99749.00;4941631;29;20075;-93
2023/03/07 03:33:43;;;;;;;11.50;4.65;;;;;;;3.18;100.00;99759.22;4940232;29;20051;-94
2023/03/07 03:36:12;;;;;;;9.95;5.18;;;;;;;3.14;100.00;99745.56;4934744;29;20400;-93
2023/03/07 03:38:40;;;;;;;11.68;4.75;;;;;;;3.16;100.00;99753.25;4935684;29;20137;-94
2023/03/07 03:41:16;;;;;;;11.52;5.15;;;;;;;3.18;100.00;99752.38;4941961;29;20035;-93
2023/03/07 03:43:41;;;;;;;12.43;5.13;;;;;;;3.11;100.00;99740.50;4938042;29;20063;-93
2023/03/07 03:46:12;;;;;;;10.90;4.82;;;;;;;3.19;100.00;99745.53;4938235;29;20063;-93
2023/03/07 03:48:39;;;;;;;12.20;5.00;;;;;;;3.24;100.00;99755.72;4931214;29;20043;-93
2023/03/07 03:51:10;;;;;;;10.95;5.07;;;;;;;3.25;100.00;99752.31;4928682;29;20031;-93
2023/03/07 03:53:39;;;;;;;12.73;5.10;;;;;;;3.10;100.00;99727.72;4932085;29;20035;-93
2023/03/07 03:56:08;;;;;;;10.07;4.90;;;;;;;3.15;100.00;99736.19;4921295;29;20066;-94
2023/03/07 03:58:40;;;;;;;13.05;4.80;;;;;;;3.13;100.00;99735.38;4925702;29;20031;-93
2023/03/07 04:01:11;;;;;;;10.55;4.95;;;;;;;3.03;100.00;99716.72;4924011;29;20054;-94
2023/03/07 04:03:44;;;;;;;9.52;4.45;;;;;;;3.10;100.00;99727.72;4932422;29;20504;-94
2023/03/07 04:06:19;;;;;;;11.00;5.53;;;;;;;3.00;100.00;99711.59;4936226;29;20493;-93
2023/03/07 04:08:49;;;;;;;9.35;4.50;;;;;;;3.01;100.00;99707.34;4931201;29;20122;-93
2023/03/07 04:11:19;;;;;;;10.73;4.88;;;;;;;2.98;100.00;99703.13;4937786;28;20027;-94
2023/03/07 04:13:47;;;;;;;12.00;5.15;;;;;;;3.03;100.00;99719.25;4932364;29;20116;-94
2023/03/07 04:16:13;;;;;;;9.38;4.25;;;;;;;2.96;100.00;99694.59;4936115;29;20024;-93
2023/03/07 04:21:33;;;;;;;9.32;4.68;;;;;;;3.03;100.00;99703.06;4904750;29;20043;-94
2023/03/07 04:24:07;;;;;;;9.38;4.00;;;;;;;3.10;100.00;99709.81;4931860;29;20034;-95
2023/03/07 04:26:36;;;;;;;9.25;4.15;;;;;;;3.09;100.00;99710.66;4934627;29;20239;-94
2023/03/07 04:29:13;;;;;;;8.73;3.97;;;;;;;3.02;100.00;99684.28;4925027;29;20023;-94
2023/03/07 04:31:44;;;;;;;9.32;4.25;;;;;;;3.03;100.00;99698.78;4937614;29;20079;-93
2023/03/07 04:34:15;;;;;;;8.43;3.85;;;;;;;3.09;100.00;99690.19;4929184;29;20043;-94
2023/03/07 04:36:46;;;;;;;8.90;3.80;;;;;;;2.95;100.00;99676.69;4933508;29;20032;-93
2023/03/07 04:39:19;;;;;;;10.40;3.92;;;;;;;3.09;100.00;99703.84;4931981;28;20087;-93
2023/03/07 04:41:44;;;;;;;7.38;3.58;;;;;;;2.94;100.00;99667.31;4931808;29;20023;-94
2023/03/07 04:44:36;;;;;;;7.78;4.10;;;;;;;2.91;100.00;99670.78;4929852;29;20036;-93
2023/03/07 04:47:14;;;;;;;7.75;3.42;;;;;;;2.95;100.00;99676.69;4917697;29;20031;-93
2023/03/07 04:49:40;;;;;;;8.85;3.60;;;;;;;3.07;100.00;99689.38;4938002;29;20030;-94
2023/03/07 04:52:05;;;;;;;7.47;3.80;;;;;;;3.06;100.00;99695.34;4929278;29;20023;-94
2023/03/07 04:54:30;;;;;;;9.18;3.78;;;;;;;2.96;100.00;99675.84;4926067;29;20082;-93
2023/03/07 04:56:56;;;;;;;10.02;4.00;;;;;;;3.01;100.00;99687.72;4935904;29;20040;-93
2023/03/07 04:59:22;;;;;;;10.55;3.42;;;;;;;2.96;100.00;99666.44;4937659;29;20028;-93
2023/03/07 05:01:49;;;;;;;7.90;4.03;;;;;;;2.99;100.00;99679.22;4933273;29;20106;-94
2023/03/07 05:04:17;;;;;;;9.82;4.15;;;;;;;2.96;100.00;99668.16;4932890;29;20023;-94
2023/03/07 05:07:10;;;;;;;9.20;4.00;;;;;;;2.90;100.00;99651.16;4940616;29;20028;-94
2023/03/07 05:09:35;;;;;;;9.85;4.20;;;;;;;2.89;100.00;99649.47;4918141;29;20040;-92
2023/03/07 05:12:24;;;;;;;8.73;3.63;;;;;;;3.01;100.00;99672.34;4937491;28;20042;-94
2023/03/07 05:15:00;;;;;;;11.27;3.95;;;;;;;2.98;100.00;99669.84;4930573;29;20044;-94
2023/03/07 05:17:34;;;;;;;8.55;4.00;;;;;;;3.03;100.00;99680.03;4933643;29;20535;-94
2023/03/07 05:20:00;;;;;;;11.20;4.50;;;;;;;2.95;100.00;99664.75;4940164;29;20035;-93
2023/03/07 05:22:26;;;;;;;11.05;4.57;;;;;;;2.88;100.00;99642.66;4937227;29;20038;-94
2023/03/07 05:24:57;;;;;;;11.48;3.92;;;;;;;3.04;100.00;99674.88;4932945;29;20514;-94
2023/03/07 05:27:22;;;;;;;8.60;3.75;;;;;;;2.87;100.00;99646.06;4936352;29;20496;-94
2023/03/07 05:29:53;;;;;;;11.23;4.40;;;;;;;2.94;100.00;99655.38;4925398;29;20028;-93
2023/03/07 05:32:21;;;;;;;10.00;4.10;;;;;;;2.95;100.00;99654.50;4926861;29;20102;-93
2023/03/07 05:34:49;;;;;;;10.68;4.32;;;;;;;2.87;100.00;99635.00;4944334;29;20032;-94
2023/03/07 05:37:21;;;;;;;12.20;4.22;;;;;;;2.90;100.00;99640.09;4939362;29;20036;-94
2023/03/07 05:39:49;;;;;;;10.82;4.20;;;;;;;2.88;100.00;99640.09;4927466;29;20028;-94
2023/03/07 05:42:17;;;;;;;14.10;4.55;;;;;;;2.93;100.00;99651.16;4936430;29;20023;-93
2023/03/07 05:44:54;;;;;;;10.80;4.68;;;;;;;2.85;100.00;99642.72;4934738;29;20381;-94
2023/03/07 05:47:22;;;;;;;11.25;4.25;;;;;;;2.97;100.00;99655.34;4934035;29;20032;-94
2023/03/07 05:49:57;;;;;;;11.65;4.45;;;;;;;2.96;100.00;99658.78;4939935;28;20531;-94
2023/03/07 05:52:26;;;;;;;11.18;4.35;;;;;;;2.89;100.00;99643.50;4932635;29;20062;-95
2023/03/07 05:54:52;;;;;;;13.95;5.13;;;;;;;2.88;100.00;99646.91;4933247;29;20745;-94
2023/03/07 05:57:21;;;;;;;11.80;4.80;;;;;;;2.85;100.00;99636.75;4946846;29;20375;-94
2023/03/07 06:02:44;;;;;;;9.65;4.50;;;;;;;2.88;100.00;99642.66;4927955;28;20054;-94
2023/03/07 06:05:13;;;;;;;10.77;4.70;;;;;;;2.93;100.00;99653.72;4950517;29;20136;-94
2023/03/07 06:07:55;;;;;;;10.93;4.47;;;;;;;2.94;100.00;99651.97;4945883;28;20127;-93
2023/03/07 06:10:24;;;;;;;12.02;5.25;;;;;;;2.96;100.00;99663.88;4946571;28;20050;-93
2023/03/07 06:12:52;;;;;;;10.15;4.70;;;;;;;2.90;100.00;99645.19;4951405;29;20040;-95
2023/03/07 06:15:25;;;;;;;12.38;4.80;;;;;;;2.89;100.00;99643.50;4941651;28;20038;-95
2023/03/07 06:17:54;;;;;;;10.23;4.30;;;;;;;2.81;100.00;99641.03;4959981;28;20219;-95
2023/03/07 06:20:25;;;;;;;10.63;4.40;;;;;;;2.91;100.00;99654.56;4954442;29;20127;-95
2023/03/07 06:22:55;;;;;;;11.95;4.82;;;;;;;2.81;100.00;99643.59;4958077;28;20396;-94
2023/03/07 06:25:21;;;;;;;11.40;4.60;;;;;;;2.80;100.00;99641.88;4928073;29;20617;-96
2023/03/07 06:27:49;;;;;;;10.05;4.20;;;;;;;2.86;100.00;99656.34;4945120;29;20118;-95
2023/03/07 06:30:27;;;;;;;;;;;;;;;;;;;;;
2023/03/07 06:32:53;;;;;;;9.90;4.43;;;;;;;2.81;100.00;99656.38;4933933;29;20063;-95
2023/03/07 06:35:32;;;;;;;11.70;4.85;;;;;;;2.72;100.00;99659.91;4934893;29;20042;-94
2023/03/07 06:41:27;;;;;;;10.10;3.97;;;;;;;2.65;100.00;99663.41;4897010;29;20039;-94
2023/03/07 06:44:06;;;;;;;10.52;4.72;;;;;;;2.75;100.00;99676.94;4930915;29;20739;-94
2023/03/07 06:46:31;;;;;;;9.75;4.13;;;;;;;2.56;100.00;99653.25;4940736;29;20046;-94
2023/03/07 06:48:59;;;;;;;10.80;4.70;;;;;;;2.58;100.00;99658.38;4933143;29;20031;-94
2023/03/07 06:51:26;;;;;;;10.77;4.40;;;;;;;2.57;100.00;99652.41;4930582;29;20032;-94
2023/03/07 06:53:53;;;;;;;11.45;4.63;;;;;;;2.53;100.00;99647.31;4936915;29;20131;-95
2023/03/07 06:56:22;;;;;;;10.10;4.18;;;;;;;2.54;100.00;99664.34;4935701;29;20027;-95
2023/03/07 06:59:05;;;;;;;;;;;;;;;;;;;;;
2023/03/07 07:01:31;;;;;;;9.35;3.92;;;;;;;2.48;100.00;99643.97;4931814;28;20019;-94
2023/03/07 07:03:58;;;;;;;10.40;4.30;;;;;;;2.53;100.00;99655.84;4931805;29;20031;-93
2023/03/07 07:06:24;;;;;;;8.73;3.80;;;;;;;2.53;100.00;99665.22;4936147;29;20034;-94
2023/03/07 07:08:54;;;;;;;6.70;3.42;;;;;;;2.44;100.00;99666.19;4938433;29;20032;-93
2023/03/07 07:11:22;;;;;;;7.30;3.30;;;;;;;2.44;100.00;99678.97;4937007;28;20098;-93
2023/03/07 07:13:49;;;;;;;6.95;2.95;;;;;;;2.36;100.00;99673.06;4929642;29;20876;-93
2023/03/07 07:16:15;;;;;;;9.18;3.15;;;;;;;2.31;100.00;99678.25;4931182;29;20048;-94
2023/03/07 07:18:40;;;;;;;9.48;3.20;;;;;;;2.29;100.00;99684.22;4929678;29;20772;-93
2023/03/07 07:21:09;;;;;;;9.05;3.65;;;;;;;2.23;100.00;99680.00;4928912;29;20457;-92
2023/03/07 07:23:35;;;;;;;9.70;4.18;;;;;;;2.19;100.00;99680.03;4936780;29;20046;-92
2023/03/07 07:26:03;;;;;;;10.88;4.55;;;;;;;2.07;100.00;99664.81;4929221;29;20083;-93
2023/03/07 07:28:28;;;;;;;10.35;4.68;;;;;;;2.03;100.00;99673.38;4937267;29;20495;-93
2023/03/07 07:30:57;;;;;;;13.05;4.55;;;;;;;2.00;100.00;99681.91;4931839;29;20063;-94
2023/03/07 07:33:22;;;;;;;11.65;4.65;;;;;;;2.01;100.00;99673.38;4923518;29;20051;-93
2023/03/07 07:35:48;;;;;;;12.75;5.22;;;;;;;1.99;100.00;99690.41;4920341;29;20034;-94
2023/03/07 07:38:13;;;;;;;13.05;5.30;;;;;;;1.92;100.00;99691.31;4936501;29;20444;-93
2023/03/07 07:40:39;;;;;;;12.50;4.88;;;;;;;1.89;100.00;99693.91;4929041;29;20031;-92
2023/03/07 07:43:05;;;;;;;11.10;4.82;;;;;;;1.90;100.00;99699.03;4935455;29;20036;-94
2023/03/07 07:45:30;;;;;;;11.77;4.97;;;;;;;2.02;100.00;99720.22;4918182;29;20510;-93
2023/03/07 07:47:56;;;;;;;18.63;8.23;;;;;;;1.90;100.00;99709.25;4933946;29;20114;-92
2023/03/07 07:50:22;;;;;;;19.55;9.20;;;;;;;1.90;100.00;99728.81;4915244;29;20028;-92
2023/03/07 07:52:54;;;;;;;17.88;7.47;;;;;;;1.87;100.00;99732.25;4922804;29;20020;-94
2023/03/07 07:55:20;;;;;;;12.63;5.72;;;;;;;1.71;100.00;99717.84;4936518;29;20031;-94
2023/03/07 07:57:45;;;;;;;13.50;5.32;;;;;;;1.81;100.00;99742.50;4931269;29;20381;-94
2023/03/07 08:07:57;;;;;;;15.30;5.28;;;;;;;1.85;100.00;99735.66;5860390;23;20062;-92
2023/03/07 08:10:28;;;;;;;12.60;5.18;;;;;;;1.87;100.00;99762.91;4944373;28;20022;-95
2023/03/07 08:12:54;;;;;;;10.70;4.60;;;;;;;1.81;100.00;99749.31;4925440;28;20037;-95
2023/03/07 08:15:20;;;;;;;9.73;3.85;;;;;;;1.78;100.00;99745.06;4946179;28;20031;-96
2023/03/07 08:17:50;;;;;;;9.52;4.32;;;;;;;1.82;100.00;99762.09;4930266;28;20037;-94
2023/03/07 08:20:21;;;;;;;6.38;3.00;;;;;;;1.78;100.00;99757.84;4947274;28;20035;-95
2023/03/07 08:22:49;;;;;;;6.30;2.70;;;;;;;1.62;100.00;99746.03;4935280;28;20073;-93
2023/03/07 08:25:23;;;;;;;6.93;2.83;;;;;;;1.65;100.00;99765.56;4933180;28;20042;-93
2023/03/07 08:28:01;;;;;;;;;;;;;;;1.62;100.00;99763.91;4944079;28;20026;-94
2023/03/07 08:30:39;;;;;;;7.95;2.85;;;;;;;1.59;100.00;99754.53;4925636;28;19918;-96
2023/03/07 08:33:04;;;;;;;7.40;2.65;;;;;;;1.55;100.00;99760.53;4922358;28;20035;-96
2023/03/07 08:35:30;;;;;;;6.88;2.92;;;;;;;1.53;100.00;99751.16;4949504;28;20073;-95
2023/03/07 08:37:58;;;;;;;7.53;3.00;;;;;;;1.49;100.00;99760.56;4951243;28;20045;-96
2023/03/07 08:40:32;;;;;;;6.75;2.83;;;;;;;1.50;100.00;99753.75;4934520;28;20524;-95
2023/03/07 08:43:21;;;;;;;6.40;2.75;;;;;;;1.60;100.00;99763.06;4944219;28;20038;-96
2023/03/07 08:45:49;;;;;;;8.02;2.60;;;;;;;1.65;100.00;99770.69;4930220;28;20035;-96
2023/03/07 08:48:19;;;;;;;7.38;2.72;;;;;;;1.61;100.00;99758.78;4950703;28;20093;-96
2023/03/07 08:50:47;;;;;;;5.97;2.80;;;;;;;1.61;100.00;99738.38;4952513;28;20495;-96
2023/03/07 08:53:17;;;;;;;5.82;2.63;;;;;;;1.70;100.00;99746.00;4952151;28;20490;-96
2023/03/07 08:55:47;;;;;;;7.22;2.72;;;;;;;1.91;100.00;99767.13;4932511;28;20034;-95
2023/03/07 08:58:12;;;;;;;6.35;2.63;;;;;;;1.91;100.00;99745.88;4950276;28;20103;-94
2023/03/07 09:00:41;;;;;;;6.40;2.90;;;;;;;2.11;100.00;99761.06;4931705;28;20027;-93
2023/03/07 09:03:23;;;;;;;;;;;;;;;;;;;;;
2023/03/07 09:05:54;;;;;;;6.47;2.60;;;;;;;2.06;100.00;99750.84;4949304;28;20035;-95
2023/03/07 09:08:20;;;;;;;7.97;3.00;;;;;;;2.06;100.00;99752.56;4931588;28;20059;-93
2023/03/07 09:10:47;;;;;;;5.75;2.60;;;;;;;2.01;100.00;99760.25;4952787;28;20034;-94
2023/03/07 09:13:15;;;;;;;7.03;2.85;;;;;;;1.95;100.00;99755.19;4933876;28;20131;-94
2023/03/07 09:15:41;;;;;;;6.72;3.22;;;;;;;1.91;100.00;99749.22;4945722;28;20042;-94
2023/03/07 09:18:07;;;;;;;10.02;3.60;;;;;;;2.03;100.00;99766.22;4935424;28;20390;-93
2023/03/07 09:20:41;;;;;;;6.30;3.30;;;;;;;2.07;100.00;99754.25;4946507;28;20098;-93
2023/03/07 09:23:07;;;;;;;;;;;;;;;2.20;100.00;99761.81;4932874;28;20366;-94
2023/03/07 09:25:32;;;;;;;9.02;3.63;;;;;;;2.18;100.00;99747.38;4951938;28;20109;-93
2023/03/07 09:27:58;;;;;;;12.27;4.32;;;;;;;2.29;100.00;99758.34;4931992;28;20082;-94
2023/03/07 09:30:25;;;;;;;11.18;4.55;;;;;;;2.29;100.00;99761.75;4932172;28;20480;-93
2023/03/07 09:32:51;;;;;;;10.10;4.45;;;;;;;2.34;100.00;99764.28;4940812;28;20034;-93
2023/03/07 09:35:20;;;;;;;10.60;4.57;;;;;;;2.42;100.00;99761.66;4934429;28;20063;-94
2023/03/07 09:38:05;;;;;;;9.25;4.20;;;;;;;2.52;100.00;99778.63;4952030;28;20580;-94
2023/03/07 09:40:34;;;;;;;11.02;4.72;;;;;;;2.68;100.00;99790.41;4931794;28;20459;-93
2023/03/07 09:43:18;;;;;;;14.35;5.47;;;;;;;2.75;100.00;99782.69;4939948;28;20571;-93
2023/03/07 09:46:07;;;;;;;12.05;5.00;;;;;;;2.73;100.00;99768.19;4951374;28;20594;-93
2023/03/07 09:49:09;;;;;;;14.00;5.70;;;;;;;2.76;100.00;99786.94;4951295;28;20400;-93
2023/03/07 09:51:39;;;;;;;13.93;5.40;;;;;;;2.70;100.00;99771.66;4949578;28;20398;-94
2023/03/07 09:54:27;;;;;;;14.85;5.93;;;;;;;2.74;100.00;99767.34;4951978;28;20110;-94
2023/03/07 09:57:08;;;;;;;13.85;5.55;;;;;;;2.71;100.00;99768.22;4935340;28;20031;-93
2023/03/07 09:59:45;;;;;;;16.02;5.82;;;;;;;2.86;100.00;99776.63;4933264;28;20122;-94
2023/03/07 10:02:49;;;;;;;15.05;5.50;;;;;;;2.97;100.00;99775.66;4935904;28;20038;-94
2023/03/07 10:05:43;;;;;;;11.65;4.80;;;;;;;3.07;100.00;99779.78;4933723;28;20686;-94
2023/03/07 10:08:19;;;;;;;9.55;4.07;;;;;;;3.00;100.00;99764.53;4938903;28;20031;-94
2023/03/07 10:11:08;;;;;;;10.82;4.30;;;;;;;3.11;100.00;99778.06;4952505;28;20054;-93
2023/03/07 10:13:52;;;;;;;9.40;4.00;;;;;;;3.17;100.00;99775.44;4932595;28;20399;-93
2023/03/07 10:16:33;;;;;;;9.13;3.92;;;;;;;3.17;100.00;99773.72;4933415;28;20428;-93
2023/03/07 10:19:14;;;;;;;11.18;4.13;;;;;;;3.23;100.00;99777.06;4927761;28;20085;-93
2023/03/07 10:22:13;;;;;;;9.57;4.15;;;;;;;3.32;100.00;99776.97;4951406;28;20055;-93
2023/03/07 10:25:06;;;;;;;8.43;3.80;;;;;;;3.45;100.00;99781.09;4933290;28;20039;-93
2023/03/07 10:27:37;;;;;;;9.13;3.72;;;;;;;3.47;100.00;99772.53;4934852;28;20054;-95
2023/03/07 10:30:14;;;;;;;12.07;4.28;;;;;;;3.51;100.00;99755.41;4951118;28;21126;-94
2023/03/07 10:32:56;;;;;;;11.27;4.40;;;;;;;3.66;100.00;99768.00;4950312;28;20407;-94
2023/03/07 10:35:38;;;;;;;9.38;4.20;;;;;;;3.73;100.00;99761.94;4949304;28;20547;-95
2023/03/07 10:38:38;;;;;;;;;;;;;;;;;;;;;
2023/03/07 10:44:04;;;;;;;8.55;4.20;;;;;;;3.87;100.00;99779.69;4936787;28;20046;-94
2023/03/07 10:46:48;;;;;;;8.80;4.22;;;;;;;3.86;100.00;99766.03;4931425;28;20038;-94
2023/03/07 10:49:19;;;;;;;9.40;4.00;;;;;;;3.89;100.00;99785.66;4952604;28;20031;-94
2023/03/07 10:52:13;;;;;;;10.02;3.70;;;;;;;3.74;100.00;99755.94;4947212;28;20027;-92
2023/03/07 10:54:38;;;;;;;7.13;3.38;;;;;;;3.82;100.00;99763.53;4925380;28;20402;-92
2023/03/07 10:57:15;;;;;;;8.43;3.90;;;;;;;3.77;100.00;99753.31;4928034;28;20498;-93
2023/03/07 10:59:49;;;;;;;9.57;4.25;;;;;;;4.07;100.00;99776.84;4930467;28;20040;-92
2023/03/07 11:02:39;;;;;;;11.60;4.20;;;;;;;4.26;100.00;99773.13;4948543;28;20059;-92
2023/03/07 11:05:54;;;;;;;9.45;3.35;;;;;;;4.30;100.00;99761.94;4951571;28;20034;-94
2023/03/07 11:08:36;;;;;;;8.23;3.13;;;;;;;4.39;100.00;99756.69;4923392;28;20130;-93
2023/03/07 11:11:20;;;;;;;7.43;3.17;;;;;;;4.41;100.00;99765.19;4947754;28;20039;-93
2023/03/07 11:14:12;;;;;;;10.63;3.45;;;;;;;4.41;100.00;99766.91;4925032;28;20033;-93
2023/03/07 11:16:48;;;;;;;9.45;3.70;;;;;;;4.48;100.00;99764.22;4933152;28;20122;-94
2023/03/07 11:19:38;;;;;;;9.20;3.97;;;;;;;4.43;100.00;99778.88;4952157;28;20121;-94
2023/03/07 11:22:28;;;;;;;7.72;3.65;;;;;;;4.41;100.00;99777.19;4936967;28;20087;-93
2023/03/07 11:25:17;;;;;;;8.02;3.75;;;;;;;4.27;100.00;99759.44;4945038;28;20057;-94
2023/03/07 11:27:59;;;;;;;7.40;3.53;;;;;;;4.19;100.00;99768.97;4950625;28;20035;-93
2023/03/07 11:30:39;;;;;;;8.32;3.63;;;;;;;4.15;100.00;99769.91;4947087;28;20049;-94
2023/03/07 11:33:19;;;;;;;7.68;3.75;;;;;;;3.95;100.00;99757.38;4948597;28;20025;-94
2023/03/07 11:36:13;;;;;;;9.23;4.40;;;;;;;4.02;100.00;99782.06;4949368;28;20039;-94
2023/03/07 11:39:18;;;;;;;8.65;4.38;;;;;;;3.90;100.00;99769.38;4944740;28;20027;-94
2023/03/07 11:41:57;;;;;;;;;;;;;;;4.03;100.00;99777.75;4902137;29;20036;-93
2023/03/07 11:45:08;;;;;;;8.15;4.03;;;;;;;3.89;100.00;99763.41;4922836;28;19929;-94
2023/03/07 11:48:04;;;;;;;7.65;3.70;;;;;;;4.06;100.00;99775.16;4912771;28;20046;-92
2023/03/07 11:50:31;;;;;;;6.80;3.50;;;;;;;4.03;100.00;99757.22;4953443;28;20027;-93
2023/03/07 11:53:14;;;;;;;8.43;3.90;;;;;;;4.21;100.00;99772.38;4942984;28;20026;-93
2023/03/07 11:56:07;;;;;;;7.90;3.67;;;;;;;4.13;100.00;99753.69;4939548;28;20510;-93
2023/03/07 11:58:42;;;;;;;7.45;3.60;;;;;;;4.18;100.00;99759.56;4953596;28;20550;-94
2023/03/07 12:01:55;;;;;;;8.95;4.00;;;;;;;4.21;100.00;99752.69;4952948;28;20046;-94
2023/03/07 12:04:39;;;;;;;8.32;3.75;;;;;;;4.26;100.00;99745.78;4941687;28;20114;-93
2023/03/07 12:07:24;;;;;;;10.13;3.92;;;;;;;4.41;100.00;99770.34;4952926;28;20066;-95
2023/03/07 12:10:28;;;;;;;7.47;3.55;;;;;;;4.34;100.00;99772.16;4939350;28;20854;-94
2023/03/07 12:13:05;;;;;;;8.30;3.53;;;;;;;4.27;100.00;99764.56;4952400;28;20157;-93
2023/03/07 12:15:56;;;;;;;9.75;4.40;;;;;;;4.20;100.00;99756.13;4940177;28;20127;-94
2023/03/07 12:19:03;;;;;;;;;;;;;;;;;;;;;
2023/03/07 12:22:04;;;;;;;10.30;4.78;;;;;;;4.61;100.00;99768.28;4952768;28;20399;-94
2023/03/07 12:24:56;;;;;;;9.43;4.40;;;;;;;4.62;100.00;99770.00;4922357;29;20043;-94
2023/03/07 12:27:47;;;;;;;10.80;4.43;;;;;;;4.55;100.00;99747.00;4896618;29;20713;-93
2023/03/07 12:30:12;;;;;;;9.07;4.00;;;;;;;4.62;100.00;99766.56;4931707;28;20455;-93